Choose a state:
Most recent flow and stage for Iowa
(Stations highlighted in red are currently above flood stage)
USGS
station
ID
USGS station name NWS
flood
stage
(ft)
Most recent
stage
(ft)
Most recent
flow
(cfs)
Historical
peaks
(cfs)
Most recent
local
date/time
NWS
station
ID
05387320 Upper Iowa River at Lime Springs, IA 11 4.85

 

  2024-04-22 15:00:00 LSPI4
05387405 Upper Iowa River at Kendallville, IA 11 4.27

 

  2024-04-22 15:00:00 KDVI4
05387440 Upper Iowa River at Bluffton, IA 14 3.76 335 16,600 2024-04-22 14:45:00 BLFI4
05387500 Upper Iowa River at Decorah, IA 12 2.23 507 34,100 2024-04-22 14:45:00 DEHI4
05388250 Upper Iowa River near Dorchester, IA 14 7.57 745 38,000 2024-04-22 15:00:00 DCHI4
05388310 Waterloo Creek near Dorchester, IA 10 6.94

 

9,720 2024-04-22 15:00:00 DWCI4
05389000 Yellow River near Ion, IA   6.29 195 21,200 2024-04-22 14:45:00  
05389400 Bloody Run Creek near Marquette, IA   3.97 10.6 4,620 2024-04-22 15:00:00  
05389500 Mississippi River at McGregor, IA 16 9.93

 

276,000 2024-04-22 15:45:00 MCGI4
05411500 Mississippi River at Clayton, IA   12.82

 

2024-04-22 15:45:00  
05411600 Turkey River at Spillville, IA 9 2.94 232 15,300 2024-04-22 15:30:00 SPLI4
05411850 Turkey River near Eldorado, IA 13 6.57 672 50,100 2024-04-22 15:45:00 EDRI4
05412020 Turkey River above French Hollow Cr at Elkader, IA 12 6.62 849 40,500 2024-04-22 14:45:00 EKDI4
05412400 Volga River at Littleport, IA 12 5.35 335 30,000 2024-04-22 15:45:00 VLPI4
05412500 Turkey River at Garber, IA 17 8.06 1,870 66,700 2024-04-22 15:15:00 GRBI4
05414400 Middle Fk Little Maquoketa R nr Rickardsville, IA   9.36

 

23,000 2024-04-22 15:30:00  
05416900 Maquoketa River at Manchester, IA 14 4.65 251 26,600 2024-04-22 15:15:00 MCHI4
05418400 North Fork Maquoketa River near Fulton, IA 12 3.12 327 25,000 2024-04-22 15:00:00 FLNI4
05418500 Maquoketa River near Maquoketa, IA 24 11.53 1,160 48,000 2024-04-22 15:15:00 MAQI4
05420400 MISSISSIPPI RIVER AT DAM 13 NEAR FULTON, IL 16 8.36

 

  2024-04-22 14:30:00 FLTI2
05420460 Beaver Slough at 3rd Street at Clinton, IA   13.73

 

65,800 2024-04-22 15:15:00  
05420500 Mississippi River at Clinton, IA 17 11.76 64,800 307,000 2024-04-22 15:30:00 CMMI4
05420680 Wapsipinicon River near Tripoli, IA 15 9.57 443 19,400 2024-04-22 14:45:00 TPLI4
05420850 Little Wapsipinicon River near Oran, IA   82.37

 

14,000 2024-04-22 15:15:00  
05421000 Wapsipinicon River at Independence, IA 12 6.28 1,740 31,100 2024-04-22 15:30:00 IDPI4
05421740 Wapsipinicon River near Anamosa, IA 14.5 7.34 1,930 31,800 2024-04-22 15:15:00 ANSI4
05421890 Silver Creek at Welton, IA   80.88

 

4,820 2024-04-22 15:00:00  
05422000 Wapsipinicon River near De Witt, IA 11 8.03 2,170 40,900 2024-04-22 15:30:00 DEWI4
05422470 Crow Creek at Bettendorf, IA   5.10

 

7,700 2024-04-22 15:00:00  
05422600 Duck Creek at DC Golf Course at Davenport, IA 12 4.15 70.3 7,570 2024-04-22 14:45:00 DKII4
05448400 West Main Drainage Ditch 1 and 2 near Britt, IA   74.67

 

450 2024-03-21 10:15:00 BTDI4
05449500 Iowa River near Rowan, IA 12.5 5.70 420 8,460 2024-04-22 15:00:00 ROWI4
05450400 Iowa River at Steamboat Rock, IA 11 6.43 721 2,500 2024-04-22 15:00:00 STBI4
05451080 South Fork Iowa River near Blairsburg, IA   4.76

 

861 2024-04-22 15:00:00 BLII4
05451210 South Fork Iowa River NE of New Providence, IA   2.96 146 7,390 2024-04-22 14:45:00 NPVI4
05451500 Iowa River at Marshalltown, IA 19 11.53 953 42,000 2024-04-22 15:00:00 MIWI4
05451700 Timber Creek near Marshalltown, IA 14 2.63 42.5 12,000 2024-04-22 15:00:00 MTWI4
05451770 Iowa River at County Highway E49 near Tama, IA 12.5 3.56 1,230 26,700 2024-04-22 15:00:00 TMAI4
05451900 Richland Creek near Haven, IA   10.42 4.15 12,200 2024-04-22 15:00:00 HAVI4
05451955 Stein Creek near Clutier, IA   66.76

 

12,200 2024-04-22 15:30:00 CLTI4
05452000 Salt Creek near Elberon, IA 16 5.53 28.8 36,600 2024-04-22 15:00:00 EBRI4
05452200 Walnut Creek near Hartwick, IA 14 1.35 5.21 8,580 2024-04-22 15:00:00 HRTI4
05452500 Iowa River near Belle Plaine, IA 15 7.21 1,060 43,000 2024-04-22 15:00:00 BPLI4
05453000 Big Bear Creek at Ladora, IA 20 10.54 18.2 11,200 2024-04-22 15:00:00 LADI4
05453100 Iowa River at Marengo, IA 15 7.15 993 51,000 2024-04-22 15:00:00 MROI4
05453200 Price Creek at Amana, IA   80.20

 

5,080 2024-04-22 15:15:00  
05453520 Iowa River below Coralville Dam nr Coralville, IA   49.840 985 39,900 2024-04-22 15:00:00  
05454000 Rapid Creek near Iowa City, IA 9 4.16 17.1 6,700 2024-04-22 15:00:00 IRCI4
05454090 Muddy Creek at Coralville, IA   2.31 5.81 2,920 2024-04-22 15:00:00 CMCI4
05454220 Clear Creek near Oxford, IA 10 2.09 13.6 6,000 2024-04-22 14:45:00 OXFI4
05454300 Clear Creek near Coralville, IA 11 1.04 35.5 10,200 2024-04-22 15:00:00 CRAI4
05454500 Iowa River at Iowa City, IA 23.5 10.49 1,110 70,000 2024-04-22 15:00:00 IOWI4
05455010 South Branch Ralston Creek at Iowa City, IA 7 1.80

 

1,070 2024-04-22 14:45:00 IACI4
05455100 Old Mans Creek near Iowa City, IA 12 2.36 67.4 14,600 2024-04-22 15:00:00 IOCI4
05455230 Deep River at Deep River, IA   66.67

 

6,200 2024-04-22 15:15:00 DEPI4
05455500 English River at Kalona, IA 14 4.48 175 36,100 2024-04-22 15:00:00 KALI4
05455700 Iowa River near Lone Tree, IA 16 5.84 1,450 57,100 2024-04-22 15:00:00 LNTI4
05457440 Deer Creek near Carpenter, IA   79.27

 

11,800 2024-04-22 15:45:00  
05457700 Cedar River at Charles City, IA 12 3.13 650 34,600 2024-04-22 15:30:00 CCYI4
05458000 Little Cedar River near Ionia, IA 10 4.10 155 24,700 2024-04-22 14:45:00 IONI4
05458300 Cedar River at Waverly, IA 12 4.99 2,310 52,600 2024-04-22 15:15:00 WVLI4
05458500 Cedar River at Janesville, IA 13 2.26 1,270 53,400 2024-04-22 14:45:00 JANI4
05458900 West Fork Cedar River at Finchford, IA 17 6.93 434 31,900 2024-04-22 14:45:00 FNHI4
05459490 Spring Creek near Mason City, IA   81.52

 

5,340 2024-04-22 15:45:00 MASI4
05459500 Winnebago River at Mason City, IA 10 6.57 679 13,100 2024-04-22 15:30:00 MCWI4
05460000 Clear Lake at Clear Lake, IA   3.88

 

  2024-04-22 15:00:00 CLKI4
05460100 Willow Creek near Mason City, IA   86.31

 

2,380 2024-04-22 14:45:00 MWCI4
05462000 Shell Rock River at Shell Rock, IA 12 9.01 1,670 60,400 2024-04-22 14:45:00 SHRI4
05463000 Beaver Creek at New Hartford, IA 12.5 1.72 86.8 25,900 2024-04-22 15:00:00 NHRI4
05463050 Cedar River at Cedar Falls, IA 89 80.31 3,330 83,900 2024-04-22 14:45:00 CEDI4
05463500 Black Hawk Creek at Hudson, IA 14 5.61 141 22,500 2024-04-22 14:45:00 HUDI4
05464000 Cedar River at Waterloo, IA 13 6.61 3,880 112,000 2024-04-22 15:00:00 ALOI4
05464220 Wolf Creek near Dysart, IA 12 2.90 158 15,700 2024-04-22 15:15:00 DYSI4
05464315 Cedar River at Vinton, IA 15 4.71 4,150 88,000 2024-04-22 15:15:00 VINI4
05464420 Cedar River at Blairs Ferry Road at Palo, IA 12.5 4.83 4,680 88,500 2024-04-22 15:15:00 PLOI4
05464475 Morgan Creek near Covington, IA   4.99 6.97 992 2024-04-22 15:30:00  
05464480 Cedar River at Edgewood Road at Cedar Rapids, IA   4.98

 

  2024-04-22 15:00:00  
05464500 Cedar River at Cedar Rapids, IA 12 4.62 4,930 140,000 2024-04-22 15:00:00 CIDI4
05464695 Indian Creek at Marion, IA 7.5 3.00 20.2 4,590 2024-04-22 14:45:00 MRNI4
05464730 Cedar River below Indian Creek at Cedar Rapids, IA   4.01 4,580 82,500 2024-04-22 15:30:00  
05464780 Cedar River at Cedar Bluff, IA 16 6.34 4,560 81,200 2024-04-22 15:00:00 CEBI4
0546494170 WB Wapsinonoc Cr at College St at West Branch, IA   2.66 7.42 859 2024-04-22 15:00:00  
05465000 Cedar River near Conesville, IA 13 7.49 4,960 127,000 2024-04-22 15:00:00 CNEI4
05465100 Iowa River at Columbus Junction, IA 23 11.00 5,580 28,300 2024-04-22 15:00:00 CJTI4
05465500 Iowa River at Wapello, IA 21 13.02 5,940 188,000 2024-04-22 15:00:00 WAPI4
05465700 Iowa River at Oakville, IA 11 3.21 6,480 188,000 2024-04-22 15:00:00 OKVI4
05469860 Mud Lake Drainage Ditch 71 at Jewell, IA   81.08

 

3,700 2024-04-22 15:15:00 JEWI4
05469990 Keigley Branch near Story City, IA   82.97

 

3,440 2024-04-22 15:30:00 STCI4
05470000 South Skunk River near Ames, IA 12.5 3.88 152 14,800 2024-04-22 15:00:00 AMEI4
05470500 Ioway Creek at Ames, IA 10 1.95 117 24,300 2024-04-22 15:00:00 AMWI4
05471000 South Skunk River below Ioway Creek near Ames, IA 21.5 10.94 344 36,200 2024-04-22 15:00:00 AESI4
05471050 South Skunk River at Colfax, IA 18 8.25 438 24,000 2024-04-22 14:45:00 CFXI4
05471200 Indian Creek near Mingo, IA   4.11 131 23,500 2024-04-22 15:15:00 MGOI4
05471500 South Skunk River near Oskaloosa, IA 24.5 9.51 864 37,000 2024-04-22 15:30:00 OOAI4
05472390 Middle Creek near Lacey, IA   75.04

 

9,650 2024-04-22 15:00:00 LCYI4
05472500 North Skunk River near Sigourney, IA 16 4.54 187 27,500 2024-04-22 15:30:00 SIGI4
05473400 Cedar Creek near Oakland Mills, IA   4.71 205 20,000 2024-04-22 15:30:00 OKMI4
05473450 Big Creek North of Mount Pleasant, IA   4.24 66.1 9,580 2024-04-22 14:45:00 MBCI4
05474000 Skunk River at Augusta, IA 15 3.76 2,850 66,800 2024-04-22 14:45:00 AGSI4
05476500 Des Moines River at Estherville, IA 10 3.96

 

16,000 2024-04-22 15:00:00 ESVI4
05476590 Des Moines River at Emmetsburg, IA 11 3.76 1,290 12,300 2024-04-22 15:15:00 EMTI4
05476735 Pilot Creek at County Hwy P15 near Rolfe, IA   3.87

 

  2024-04-22 15:15:00 RLFI4
05476750 Des Moines River at Humboldt, IA 10 6.25 2,150 19,000 2024-04-22 15:15:00 HBTI4
05478265 East Fork Des Moines River near Algona, IA 17 12.63 1,420 11,000 2024-04-22 15:15:00 AGNI4
05479000 East Fork Des Moines River at Dakota City, IA 20 10.90 1,740 22,000 2024-04-22 15:00:00 DAKI4
05480080 Lizard Creek near Fort Dodge, IA   6.03

 

  2024-04-22 15:15:00 FLZI4
05480500 Des Moines River at Fort Dodge, IA 10.5 5.99 3,810 36,800 2024-04-22 15:00:00 FODI4
05480820 Boone River near Goldfield, IA   9.19 277 10,100 2024-04-22 15:15:00 GLDI4
05480930 White Fox Creek at Clarion, IA   83.42

 

3,290 2024-04-22 14:45:00 CWFI4
05481000 Boone River near Webster City, IA 14 3.14 524 21,500 2024-04-22 15:00:00 WBCI4
05481300 Des Moines River near Stratford, IA 19 9.15 5,460 58,300 2024-04-22 15:00:00 STRI4
05481510 Bluff Creek at Pilot Mound, IA   80.62

 

1,290 2024-04-22 15:15:00 PMDI4
05481650 Des Moines River near Saylorville, IA   7.25 5,720 60,000 2024-04-22 15:00:00 SDTI4
05481950 Beaver Creek near Grimes, IA 14 4.19 223 14,300 2024-04-22 15:15:00 GRMI4
05482000 Des Moines River at 2nd Avenue at Des Moines, IA 23 15.54 5,850 60,200 2024-04-22 15:15:00 DMOI4
05482300 North Raccoon River near Sac City, IA   8.94 611 13,100 2024-04-22 15:15:00 SCRI4
05482315 Black Hawk Lake at Lake View, IA   6.29

 

  2024-04-22 15:15:00 BHLI4
05482430 North Raccoon River near Lanesboro, IA   9.98

 

2024-04-22 15:15:00 LKCI4
05482500 North Raccoon River near Jefferson, IA 19 6.45 1,110 29,100 2024-04-22 15:15:00 EFWI4
05483318 Brushy Fork Creek near Templeton, IA   66.80

 

19,000 2024-04-22 15:00:00 TPTI4
05483349 Middle Raccoon River Tributary at Carroll, IA   14.92

 

4,600 2024-04-22 15:15:00 CLLI4
05483450 Middle Raccoon River near Bayard, IA   9.04 77.5 27,500 2024-04-22 15:15:00 BAYI4
05483470 Lake Panorama at Panora, IA   45.57

 

  2024-04-22 15:15:00 PNLI4
05483600 Middle Raccoon River at Panora, IA 11 4.19 62.3 22,400 2024-04-22 15:15:00 PANI4
05484000 South Raccoon River at Redfield, IA 20 2.64 215 44,000 2024-04-22 14:45:00 REDI4
05484500 Raccoon River at Van Meter, IA 17 4.35 1,640 70,100 2024-04-22 15:00:00 VNMI4
05484600 Raccoon River near West Des Moines, IA   28.22 1,320 2024-04-22 14:45:00 WDMI4
05484650 Raccoon River at 63rd Street at Des Moines, IA 36 21.65 1,410 66,000 2024-04-22 15:15:00 DMWI4
05484800 Walnut Creek at Des Moines, IA 14 3.03 10.8 12,500 2024-04-22 14:45:00 DOSI4
05484900 Raccoon River at Fleur Drive at Des Moines, IA 12 3.17 1,330 67,900 2024-04-22 14:45:00 DEMI4
05485500 Des Moines River blw Raccoon Riv at Des Moines, IA 24 14.62 7,550 116,000 2024-04-22 15:00:00 DESI4
05485605 Fourmile Creek near Ankeny, IA DS1 11 1.68 14.2 10,000 2024-04-22 15:15:00 ANKI4
05485640 Fourmile Creek at Des Moines, IA 12.5 3.82 15.1 12,000 2024-04-22 15:30:00 DFMI4
05486000 North River near Norwalk, IA 22 5.21 41.3 32,000 2024-04-22 15:15:00 NRWI4
05486490 Middle River near Indianola, IA 23 7.18 57.3 34,000 2024-04-22 15:15:00 IDNI4
05487470 South River near Ackworth, IA 29 5.53 37.5 38,100 2024-04-22 15:15:00 AKWI4
05487520 Des Moines River near Swan, IA   46.18 7,450 60,500 2024-04-22 15:15:00 SWNI4
05487980 White Breast Creek near Dallas, IA 23 6.44 7.41 37,300 2024-04-22 15:15:00 DLLI4
05488110 Des Moines River near Pella, IA   87.49 6,950 105,000 2024-04-22 15:15:00 RRDI4
05488200 English Creek near Knoxville, IA 21 8.24 7.55 28,000 2024-04-22 15:15:00 KECI4
05488500 Des Moines River near Tracy, IA 14 5.25 8,470 155,000 2024-04-22 15:15:00 TRCI4
05489000 Cedar Creek near Bussey, IA 25 4.69 39.0 96,000 2024-04-22 15:15:00 BSSI4
05489200 Des Moines River at Eddyville, IA 63 51.03 6,190 23,700 2024-04-22 15:15:00 EDYI4
05489490 Bear Creek at Ottumwa, IA   79.65

 

4,030 2024-04-22 15:45:00 BCOI4
05489500 Des Moines River at Ottumwa, IA 11.5 3.48 6,990 140,000 2024-04-22 15:50:00 OTMI4
05490500 Des Moines River at Keosauqua, IA 22 12.72 7,890 146,000 2024-04-22 15:15:00 KEQI4
06483290 Rock River below Tom Creek at Rock Rapids, IA 13 8.03 255 33,800 2024-04-22 15:15:00 RAPI4
06483495 Burr Oak Creek near Perkins, IA 16 10.45

 

6,400 2024-04-22 15:15:00 BOCI4
06483500 Rock River near Rock Valley, IA 16 6.10 501 60,600 2024-04-22 15:00:00 RKVI4
06485500 BIG SIOUX RIVER AT AKRON,IA 16 7.99 1,870 108,000 2024-04-22 15:00:00 AKRI4
06485950 BIG SIOUX RIVER AT SIOUX CITY, IA 32 12.52 1,670 61,600 2024-04-22 15:30:00 SXCI4
06486000 Missouri River at Sioux City, IA 30 12.79 32,800 441,000 2024-04-22 15:00:00 SSCN1
06599900 Perry Creek near Millnerville, IA 8 1.62

 

4,690 2024-04-22 14:45:00 PCMI4
06599950 Perry Creek near Hinton, IA 28 16.19

 

6,410 2024-04-22 15:15:00 PCHI4
06600000 Perry Creek at 38th Street at Sioux City, IA 24 7.02

 

9,600 2024-04-22 15:00:00 SIOI4
06600100 Floyd River at Alton, IA 12 6.65 294 45,500 2024-04-22 15:00:00 ALTI4
06600500 Floyd River at James, IA 26 10.71 938 71,500 2024-04-22 15:00:00 JMEI4
06601200 Missouri River at Decatur, NE 35 21.55 34,600 191,000 2024-04-22 15:00:00 DCTN1
06602190 Elliott Creek at Lawton, IA 80 72.41

 

3,150 2024-04-22 15:15:00 ECLI4
06602400 Monona-Harrison Ditch near Turin, IA 23 6.04 283 21,000 2024-04-22 15:00:00 TRNI4
06604000 Spirit Lake near Orleans, IA 16 13.57

 

  2024-04-22 15:15:00 SLKI4
06604200 West Okoboji Lake at Lakeside Lab near Milford, IA 6.5 4.27

 

6.28 2024-04-22 14:45:00 OBJI4
06605000 Ocheyedan River near Spencer, IA 8 4.34 421 26,000 2024-04-22 15:45:00 SPOI4
06605750 Willow Creek near Cornell, IA 90 82.72

 

6,790 2024-04-22 15:15:00 CWCI4
06605850 Little Sioux River at Linn Grove, IA 18 10.65 1,840 26,400 2024-04-22 15:00:00 LNNI4
06606600 Little Sioux River at Correctionville, IA 19 9.48 3,050 30,600 2024-04-22 15:00:00 CRRI4
06607200 Maple River at Mapleton, IA 21 5.21 320 26,900 2024-04-22 15:00:00 MAPI4
06607500 Little Sioux River near Turin, IA 25 10.94 3,180 58,400 2024-04-22 15:00:00 TURI4
06608500 Soldier River at Pisgah, IA 28 2.40 58.7 34,700 2024-04-22 15:00:00 PSGI4
06609500 Boyer River at Logan, IA 21 3.41 181 35,400 2024-04-22 15:00:00 LGNI4
06609560 Willow Creek near Soldier, IA 81.5 65.46

 

6,840 2024-04-22 15:00:00 WCSI4
06610000 Missouri River at Omaha, NE 27 16.32 36,800 396,000 2024-04-22 15:00:00 OMHN1
06807000 Missouri River at Nebraska City, NE 18 11.15 43,200 414,000 2024-04-22 15:00:00 NEBN1
06807410 West Nishnabotna River at Hancock, IA 14 1.14 40.8 30,100 2024-04-22 15:00:00 HNKI4
06808500 West Nishnabotna River at Randolph, IA 19 7.12 114 40,800 2024-04-22 15:00:00 RDPI4
06809210 East Nishnabotna River near Atlantic, IA 19 2.27 58.0 41,400 2024-04-22 15:00:00 ATCI4
06809500 East Nishnabotna River at Red Oak, IA 18 5.29 118 60,500 2024-04-22 15:00:00 RDOI4
06810000 Nishnabotna River above Hamburg, IA 25 7.61 335 65,100 2024-04-22 15:00:00 HMBI4
06810070 Missouri River at Brownville, NE 34 26.12 43,100 147,000 2024-04-22 15:15:00 BRON1
06811760 Tarkio River near Elliott, IA 11 3.33

 

5,000 2024-04-22 15:45:00 TRKI4
06811800 East Tarkio Creek near Stanton, IA 11.5 0.35

 

4,790 2024-04-22 15:30:00 ETRI4
06811875 Snake Creek near Yorktown, IA 92.5 79.41

 

3,220 2024-04-22 14:45:00 SKYI4
06813500 Missouri River at Rulo, NE 17 9.03 44,900 358,000 2024-04-22 15:30:00 RULN1
06816290 West Nodaway River at Massena, IA   66.49

 

5,500 2024-04-22 15:15:00 MAAI4
06817000 Nodaway River at Clarinda, IA 23 10.75 169 47,900 2024-04-22 15:15:00 ICLI4
06817300 East Nodaway River at Highway 2 near Clarinda, IA 26.5 9.62 55.7 20,500 2024-04-22 14:45:00 ENOI4
06819185 East Fork 102 River at Bedford, IA 24 11.27 53.5 10,300 2024-04-22 14:45:00 BDFI4
06898000 Thompson River at Davis City, IA 12 1.27 106 57,000 2024-04-22 15:00:00 DVSI4
06903400 Chariton River near Chariton, IA 19.5 4.77 18.1 37,700 2024-04-22 15:45:00 CHTI4
06903700 South Fork Chariton River near Promise City, IA 25 3.31 27.4 70,600 2024-04-22 15:45:00 PRMI4
06903880 Rathbun Lake near Rathbun, IA 926 903.27

 

  2024-04-22 15:45:00 RADI4
06903900 Chariton River near Rathbun, IA   2.09 12.0 21,800 2024-04-22 15:00:00 RABI4
06903990 Cooper Creek at Centerville, IA   8.36 13.2 7,000 2024-04-22 15:30:00 CENI4
06904010 Chariton River near Moulton, IA 36 18.83 75.0 21,200 2024-04-22 14:45:00 MOLI4
402351091222701 MISSISSIPPI RIVER AT LOCK & DAM 19 (CORPS)   6.79

 

  2024-04-22 14:40:00  
404753091053001 MISSISSIPPI RIVER AT BURLINGTON, IA (CORPS)   11.38

 

  2024-04-22 14:00:00  
405256091012601 MISSISSIPPI RIVER AT LOCK & DAM 18 (CORPS)   5.95

 

  2024-04-22 14:30:00  
412327091031801 MISSISSIPPI RIVER AT MUSCATINE, IA (CORPS)   9.59

 

  2024-04-22 14:15:00  
413428090241101 MISSISSIPPI RIVER AT LOCK & DAM 14 (CORPS)   6.53

 

  2024-04-22 14:30:00  
421539090252101 MISSISSIPPI RIVER AT LOCK & DAM 12 (CORPS)   8.90

 

  2024-04-22 14:30:00  
422958090391101 MISSISSIPPI RIVER AT DUBUQUE, IA (CORPS)   10.29

 

  2024-04-22 14:30:00